createdAt,value
2019-01-26T00:02:23.903Z,38.83
2019-01-26T00:07:27.666Z,42.97
2019-01-26T00:12:31.410Z,32.83
2019-01-26T00:17:35.201Z,40.33
2019-01-26T00:22:38.939Z,36.20
2019-01-26T00:27:43.040Z,35.20
2019-01-26T00:32:46.751Z,36.27
2019-01-26T00:37:50.462Z,33.53
2019-01-26T00:42:54.214Z,35.30
2019-01-26T00:47:57.921Z,36.07
2019-01-26T00:53:01.706Z,38.90
2019-01-26T00:58:05.673Z,43.20
2019-01-26T01:08:24.691Z,45.13
2019-01-26T01:13:28.679Z,46.00
2019-01-26T01:18:32.413Z,47.60
2019-01-26T01:23:36.145Z,51.77
2019-01-26T01:28:39.910Z,41.60
2019-01-26T01:33:43.627Z,37.93
2019-01-26T01:38:47.570Z,38.53
2019-01-26T01:43:51.529Z,50.73
2019-01-26T01:48:55.259Z,56.63
2019-01-26T01:53:59.244Z,96.87
2019-01-26T01:59:03.180Z,134.67
2019-01-26T02:04:06.906Z,120.27
2019-01-26T02:09:10.716Z,110.73
2019-01-26T02:14:14.421Z,103.30
2019-01-26T02:19:18.137Z,81.30
2019-01-26T02:24:22.084Z,61.10
2019-01-26T02:29:25.811Z,51.17
2019-01-26T02:34:29.526Z,47.30
2019-01-26T02:39:33.248Z,57.43
2019-01-26T02:44:36.970Z,115.67
2019-01-26T02:49:40.706Z,59.90
2019-01-26T02:54:44.417Z,139.87
2019-01-26T02:59:48.371Z,124.43
2019-01-26T03:04:52.352Z,132.70
2019-01-26T03:09:56.100Z,116.30
2019-01-26T03:15:00.396Z,90.33
2019-01-26T03:20:05.350Z,70.27
2019-01-26T03:25:09.555Z,56.70
2019-01-26T03:30:18.513Z,60.57
2019-01-26T03:35:22.290Z,56.30
2019-01-26T03:40:26.008Z,55.40
2019-01-26T03:45:29.727Z,66.30
2019-01-26T03:50:33.431Z,52.37
2019-01-26T03:55:37.138Z,49.13
2019-01-26T04:00:40.939Z,50.33
2019-01-26T04:05:44.666Z,60.30
2019-01-26T04:10:48.656Z,165.23
2019-01-26T04:15:52.438Z,83.73
2019-01-26T04:20:56.159Z,60.50
2019-01-26T04:25:59.927Z,135.97
2019-01-26T04:31:03.652Z,150.53
2019-01-26T04:36:07.396Z,160.57
2019-01-26T04:41:11.171Z,166.57
2019-01-26T04:46:14.913Z,182.63
2019-01-26T04:51:18.766Z,147.73
2019-01-26T04:56:22.524Z,150.83
2019-01-26T05:01:26.495Z,126.70
2019-01-26T05:06:30.235Z,119.83
2019-01-26T05:11:33.983Z,88.97
2019-01-26T05:16:37.703Z,88.67
2019-01-26T05:21:41.695Z,91.43
2019-01-26T05:26:45.399Z,110.87
2019-01-26T05:31:49.611Z,104.47
2019-01-26T05:36:53.422Z,133.03
2019-01-26T05:41:57.150Z,142.00
2019-01-26T05:47:01.262Z,138.40
2019-01-26T05:52:05.476Z,123.70
2019-01-26T05:57:09.590Z,156.77
2019-01-26T06:02:13.466Z,126.60
2019-01-26T06:07:17.295Z,145.93
2019-01-26T06:12:21.217Z,150.13
2019-01-26T06:17:25.002Z,183.17
2019-01-26T06:22:28.772Z,164.10
2019-01-26T06:27:32.850Z,214.33
2019-01-26T06:32:36.642Z,188.63
2019-01-26T06:37:40.395Z,116.03
2019-01-26T06:42:44.291Z,99.13
2019-01-26T06:47:48.479Z,129.73
2019-01-26T06:52:52.307Z,172.77
2019-01-26T06:57:56.078Z,170.60
2019-01-26T07:03:00.042Z,184.60
2019-01-26T07:08:03.892Z,181.23
2019-01-26T07:13:07.612Z,175.40
2019-01-26T07:18:11.387Z,177.63
2019-01-26T07:23:15.130Z,168.80
2019-01-26T07:28:18.892Z,169.83
2019-01-26T07:33:22.666Z,168.77
2019-01-26T07:38:26.412Z,210.63
2019-01-26T07:43:30.406Z,163.83
2019-01-26T07:48:34.226Z,179.40
2019-01-26T07:53:38.246Z,163.17
2019-01-26T07:58:41.979Z,178.47
2019-01-26T08:03:45.982Z,169.10
2019-01-26T08:08:49.982Z,158.97
2019-01-26T08:13:53.745Z,158.83
2019-01-26T08:18:57.479Z,153.10
2019-01-26T08:24:01.186Z,140.17
2019-01-26T08:29:05.030Z,130.70
2019-01-26T08:34:08.750Z,112.87
2019-01-26T08:39:12.743Z,113.87
2019-01-26T08:44:17.197Z,127.30
2019-01-26T08:49:21.590Z,135.47
2019-01-26T08:54:25.349Z,112.70
2019-01-26T08:59:29.109Z,138.20
2019-01-26T09:04:33.870Z,126.47
2019-01-26T09:09:37.624Z,142.00
2019-01-26T09:14:41.352Z,96.60
2019-01-26T09:19:45.099Z,142.27
2019-01-26T09:24:48.894Z,90.17
2019-01-26T09:29:52.675Z,69.00
2019-01-26T09:34:57.809Z,61.03
2019-01-26T09:40:01.607Z,109.43
2019-01-26T09:45:08.829Z,59.30
2019-01-26T09:50:13.237Z,111.27
2019-01-26T09:55:17.119Z,90.73
2019-01-26T10:00:21.134Z,107.03
2019-01-26T10:05:25.011Z,101.97
2019-01-26T10:10:28.810Z,88.40
2019-01-26T10:15:32.576Z,111.03
2019-01-26T10:20:37.422Z,90.90
2019-01-26T10:25:48.412Z,87.70
2019-01-26T10:30:52.621Z,104.90
2019-01-26T10:36:18.644Z,83.80
2019-01-26T10:41:40.583Z,87.47
2019-01-26T10:46:44.303Z,68.43
2019-01-26T10:51:48.090Z,84.77
2019-01-26T10:56:51.823Z,68.83
2019-01-26T11:01:55.539Z,61.90
2019-01-26T11:06:59.252Z,57.93
2019-01-26T11:12:03.255Z,65.10
2019-01-26T11:17:07.053Z,55.67
2019-01-26T11:22:10.835Z,65.40
2019-01-26T11:27:14.967Z,64.70
2019-01-26T11:32:18.947Z,65.53
2019-01-26T11:37:22.658Z,63.53
2019-01-26T11:42:26.386Z,62.33
2019-01-26T11:47:30.646Z,56.60
2019-01-26T11:52:34.628Z,65.63
2019-01-26T11:57:39.517Z,56.60
2019-01-26T12:02:49.411Z,69.93
2019-01-26T12:07:53.207Z,56.83
2019-01-26T12:12:57.209Z,59.47
2019-01-26T12:18:00.943Z,67.87
2019-01-26T12:23:04.827Z,77.93
2019-01-26T12:28:08.762Z,54.93
2019-01-26T12:33:12.782Z,66.47
2019-01-26T12:38:16.787Z,102.37
2019-01-26T12:43:20.567Z,111.50
2019-01-26T12:48:24.398Z,87.53
2019-01-26T12:53:30.149Z,170.67
2019-01-26T12:58:33.875Z,79.43
2019-01-26T13:03:37.625Z,95.00
2019-01-26T13:08:41.462Z,82.97
2019-01-26T13:13:45.258Z,84.97
2019-01-26T13:18:49.183Z,114.50
2019-01-26T13:23:53.174Z,108.30
2019-01-26T13:28:59.806Z,142.90
2019-01-26T13:34:03.957Z,164.67
2019-01-26T13:39:11.100Z,97.70
2019-01-26T13:44:14.967Z,156.90
2019-01-26T13:49:18.946Z,223.00
2019-01-26T13:54:22.850Z,262.83
2019-01-26T13:59:26.554Z,182.40
2019-01-26T14:04:31.535Z,208.87
2019-01-26T14:09:35.371Z,191.50
2019-01-26T14:14:39.137Z,240.93
2019-01-26T14:19:43.275Z,278.27
2019-01-26T14:24:46.983Z,245.90
2019-01-26T14:29:50.723Z,245.93
2019-01-26T14:34:54.735Z,419.50
2019-01-26T14:39:58.523Z,376.37
2019-01-26T14:45:02.236Z,477.80
2019-01-26T14:50:07.214Z,478.43
2019-01-26T14:55:14.271Z,566.27
2019-01-26T15:00:21.236Z,455.93
2019-01-26T15:05:27.009Z,609.93
2019-01-26T15:10:30.808Z,540.23
2019-01-26T15:15:35.693Z,636.20
2019-01-26T15:20:40.795Z,704.43
2019-01-26T15:25:44.578Z,629.27
2019-01-26T15:30:48.481Z,741.67
2019-01-26T15:35:52.477Z,671.03
2019-01-26T15:40:56.210Z,698.57
2019-01-26T15:45:59.966Z,706.03
2019-01-26T15:51:03.694Z,597.17
2019-01-26T15:56:07.419Z,605.60
2019-01-26T16:01:11.313Z,523.37
2019-01-26T16:06:15.179Z,576.77
2019-01-26T16:11:19.255Z,731.63
2019-01-26T16:16:22.990Z,749.77
2019-01-26T16:21:26.854Z,686.27
2019-01-26T16:26:30.587Z,604.33
2019-01-26T16:31:34.490Z,657.73
2019-01-26T16:36:38.635Z,658.27
2019-01-26T16:41:42.418Z,693.80
2019-01-26T16:46:46.407Z,590.73
2019-01-26T16:51:51.645Z,524.90
2019-01-26T16:57:10.188Z,510.47
2019-01-26T17:02:14.678Z,523.50
2019-01-26T17:07:18.483Z,547.20
2019-01-26T17:12:22.258Z,478.77
2019-01-26T17:17:25.982Z,624.93
2019-01-26T17:22:29.909Z,642.83
2019-01-26T17:27:33.996Z,738.03
2019-01-26T17:32:37.799Z,711.90
2019-01-26T17:37:41.559Z,847.12
2019-01-26T17:42:45.680Z,610.80
2019-01-26T17:47:49.878Z,740.10
2019-01-26T17:52:53.662Z,759.57
2019-01-26T17:57:57.415Z,698.23
2019-01-26T18:03:01.148Z,685.57
2019-01-26T18:08:05.065Z,726.17
2019-01-26T18:13:09.163Z,682.40
2019-01-26T18:18:13.035Z,657.80
2019-01-26T18:23:20.908Z,664.17
2019-01-26T18:28:26.033Z,657.67
2019-01-26T18:33:30.749Z,572.03
2019-01-26T18:38:35.144Z,515.03
2019-01-26T18:43:40.346Z,570.80
2019-01-26T18:48:44.866Z,368.13
2019-01-26T18:53:50.498Z,609.73
2019-01-26T18:58:54.689Z,445.37
2019-01-26T19:04:34.063Z,433.07
2019-01-26T19:09:38.451Z,316.50
2019-01-26T19:14:42.610Z,364.13
2019-01-26T19:19:47.124Z,427.93
2019-01-26T19:24:51.279Z,423.07
2019-01-26T19:29:55.582Z,354.03
2019-01-26T19:35:00.423Z,399.57
2019-01-26T19:40:05.666Z,402.57
2019-01-26T19:45:11.923Z,479.17
2019-01-26T19:50:20.326Z,206.20
2019-01-26T19:55:31.529Z,367.27
2019-01-26T20:00:35.558Z,410.87
2019-01-26T20:05:39.462Z,425.97
2019-01-26T20:10:43.201Z,324.93
2019-01-26T20:15:47.082Z,357.60
2019-01-26T20:20:56.711Z,251.07
2019-01-26T20:26:09.502Z,256.60
2019-01-26T20:31:30.489Z,255.17
2019-01-26T20:36:46.324Z,318.93
2019-01-26T20:42:05.589Z,400.87
2019-01-26T20:47:09.547Z,458.13
2019-01-26T20:52:13.291Z,575.97
2019-01-26T20:57:17.111Z,612.47
2019-01-26T21:02:21.211Z,509.30
2019-01-26T21:07:24.942Z,534.47
2019-01-26T21:12:28.655Z,408.07
2019-01-26T21:17:32.655Z,351.23
2019-01-26T21:22:36.431Z,371.13
2019-01-26T21:27:41.558Z,363.93
2019-01-26T21:32:45.642Z,313.60
2019-01-26T21:37:49.786Z,323.30
2019-01-26T21:42:53.531Z,467.73
2019-01-26T21:47:57.722Z,477.90
2019-01-26T21:53:02.575Z,476.53
2019-01-26T21:58:06.582Z,424.83
2019-01-26T22:03:10.479Z,389.93
2019-01-26T22:08:14.546Z,451.50
2019-01-26T22:13:18.352Z,490.00
2019-01-26T22:18:22.170Z,475.67
2019-01-26T22:23:26.019Z,501.30
2019-01-26T22:28:29.790Z,481.80
2019-01-26T22:33:33.851Z,520.60
2019-01-26T22:38:38.886Z,627.30
2019-01-26T22:43:42.758Z,693.03
2019-01-26T22:48:46.798Z,625.63
2019-01-26T22:53:50.790Z,582.60
2019-01-26T22:58:54.640Z,502.53
2019-01-26T23:04:27.591Z,590.10
2019-01-26T23:09:56.659Z,564.10
2019-01-26T23:15:41.872Z,376.20
2019-01-26T23:21:07.158Z,567.57
2019-01-26T23:26:34.296Z,497.37
2019-01-26T23:31:38.147Z,334.93
2019-01-26T23:36:42.026Z,376.90
2019-01-26T23:41:46.823Z,643.80
2019-01-26T23:46:52.555Z,707.03
2019-01-26T23:51:56.459Z,605.40
2019-01-26T23:57:02.543Z,724.90
